createdAt,value
2023-05-09T00:00:55.160Z,36.85
2023-05-09T00:01:55.187Z,36.84
2023-05-09T00:02:55.130Z,36.83
2023-05-09T00:03:55.166Z,36.85
2023-05-09T00:04:55.992Z,36.88
2023-05-09T00:05:55.057Z,36.87
2023-05-09T00:06:55.030Z,36.91
2023-05-09T00:07:55.004Z,36.92
2023-05-09T00:08:54.981Z,36.88
2023-05-09T00:09:54.975Z,36.83
2023-05-09T00:10:54.968Z,36.85
2023-05-09T00:11:55.004Z,36.84
2023-05-09T00:12:55.044Z,36.85
2023-05-09T00:13:55.172Z,36.86
2023-05-09T00:14:55.137Z,36.85
2023-05-09T00:15:55.171Z,36.83
2023-05-09T00:16:55.267Z,36.82
2023-05-09T00:17:55.189Z,36.82
2023-05-09T00:18:55.151Z,36.87
2023-05-09T00:19:55.177Z,36.89
2023-05-09T00:20:55.180Z,36.87
2023-05-09T00:21:55.191Z,36.84
2023-05-09T00:22:55.195Z,36.84
2023-05-09T00:23:55.183Z,36.82
2023-05-09T00:24:55.179Z,36.82
2023-05-09T00:25:55.182Z,36.82
2023-05-09T00:26:55.203Z,36.83
2023-05-09T00:27:55.217Z,36.86
2023-05-09T00:28:55.205Z,36.79
2023-05-09T00:29:55.316Z,36.82
2023-05-09T00:30:55.203Z,36.82
2023-05-09T00:31:55.243Z,36.81
2023-05-09T00:32:55.263Z,36.85
2023-05-09T00:33:55.228Z,36.83
2023-05-09T00:34:55.228Z,36.83
2023-05-09T00:35:55.250Z,36.84
2023-05-09T00:36:55.252Z,36.82
2023-05-09T00:37:55.245Z,36.90
2023-05-09T00:38:55.248Z,36.85
2023-05-09T00:39:55.253Z,36.88
2023-05-09T00:40:55.260Z,36.87
2023-05-09T00:41:55.276Z,36.83
2023-05-09T00:42:55.291Z,36.85
2023-05-09T00:43:55.262Z,36.92
2023-05-09T00:44:55.261Z,36.87
2023-05-09T00:45:55.353Z,36.89
2023-05-09T00:46:55.193Z,36.88
2023-05-09T00:47:55.198Z,36.85
2023-05-09T00:48:55.187Z,36.80
2023-05-09T00:49:55.131Z,36.82
2023-05-09T00:50:55.129Z,36.84
2023-05-09T00:51:55.101Z,36.82
2023-05-09T00:52:55.074Z,36.80
2023-05-09T00:53:55.065Z,36.83
2023-05-09T00:54:55.044Z,36.90
2023-05-09T00:55:55.033Z,36.86
2023-05-09T00:56:55.042Z,36.88
2023-05-09T00:57:54.992Z,36.86
2023-05-09T00:58:54.973Z,36.84
2023-05-09T00:59:54.962Z,36.86
2023-05-09T01:00:54.939Z,36.85
2023-05-09T01:01:55.089Z,36.82
2023-05-09T01:02:55.002Z,36.82
2023-05-09T01:03:54.971Z,36.82
2023-05-09T01:04:54.975Z,36.79
2023-05-09T01:05:54.991Z,36.77
2023-05-09T01:06:54.996Z,36.83
2023-05-09T01:07:55.017Z,36.85
2023-05-09T01:08:55.036Z,36.92
2023-05-09T01:09:55.023Z,36.85
2023-05-09T01:10:55.060Z,36.80
2023-05-09T01:11:55.059Z,36.84
2023-05-09T01:12:55.118Z,36.81
2023-05-09T01:13:55.074Z,36.80
2023-05-09T01:14:55.105Z,36.85
2023-05-09T01:15:55.232Z,36.84
2023-05-09T01:16:55.117Z,36.80
2023-05-09T01:17:55.222Z,36.86
2023-05-09T01:18:55.133Z,36.82
2023-05-09T01:19:55.154Z,36.78
2023-05-09T01:20:55.157Z,36.82
2023-05-09T01:21:55.160Z,36.82
2023-05-09T01:22:55.191Z,36.84
2023-05-09T01:23:55.201Z,36.82
2023-05-09T01:24:55.227Z,36.79
2023-05-09T01:25:55.214Z,36.79
2023-05-09T01:26:55.226Z,36.78
2023-05-09T01:27:55.263Z,36.79
2023-05-09T01:28:55.264Z,36.82
2023-05-09T01:29:55.268Z,36.79
2023-05-09T01:30:55.288Z,36.80
2023-05-09T01:31:55.307Z,36.79
2023-05-09T01:32:55.403Z,36.78
2023-05-09T01:33:55.398Z,36.82
2023-05-09T01:34:55.311Z,36.87
2023-05-09T01:35:55.346Z,36.80
2023-05-09T01:36:55.340Z,36.79
2023-05-09T01:37:55.341Z,36.82
2023-05-09T01:38:55.353Z,36.85
2023-05-09T01:39:55.382Z,36.82
2023-05-09T01:40:55.390Z,36.80
2023-05-09T01:41:55.395Z,36.80
2023-05-09T01:42:55.427Z,36.77
2023-05-09T01:43:55.482Z,36.78
2023-05-09T01:44:55.456Z,36.77
2023-05-09T01:45:55.467Z,36.80
2023-05-09T01:46:55.567Z,36.78
2023-05-09T01:47:55.532Z,36.84
2023-05-09T01:48:55.500Z,36.79
2023-05-09T01:49:55.650Z,36.79
2023-05-09T01:50:55.552Z,36.82
2023-05-09T01:51:55.517Z,36.82
2023-05-09T01:52:55.489Z,36.80
2023-05-09T01:53:55.488Z,36.85
2023-05-09T01:54:55.450Z,36.84
2023-05-09T01:55:55.419Z,36.83
2023-05-09T01:56:55.408Z,36.79
2023-05-09T01:57:55.383Z,36.79
2023-05-09T01:58:55.374Z,36.78
2023-05-09T01:59:55.342Z,36.77
2023-05-09T02:00:55.324Z,36.74
2023-05-09T02:01:55.377Z,36.81
2023-05-09T02:02:55.482Z,36.81
2023-05-09T02:03:55.286Z,36.81
2023-05-09T02:04:55.236Z,36.82
2023-05-09T02:05:55.319Z,36.85
2023-05-09T02:06:55.193Z,36.83
2023-05-09T02:07:55.169Z,36.83
2023-05-09T02:08:55.154Z,36.77
2023-05-09T02:09:55.144Z,36.79
2023-05-09T02:10:55.125Z,36.79
2023-05-09T02:11:55.118Z,36.83
2023-05-09T02:12:55.198Z,36.81
2023-05-09T02:13:55.070Z,36.79
2023-05-09T02:14:55.057Z,36.79
2023-05-09T02:15:55.036Z,36.81
2023-05-09T02:16:55.125Z,36.80
2023-05-09T02:17:55.021Z,36.76
2023-05-09T02:18:54.976Z,36.77
2023-05-09T02:19:54.956Z,36.84
2023-05-09T02:20:54.957Z,36.78
2023-05-09T02:21:55.024Z,36.81
2023-05-09T02:22:54.880Z,36.77
2023-05-09T02:23:54.867Z,36.77
2023-05-09T02:24:54.896Z,36.79
2023-05-09T02:25:54.846Z,36.79
2023-05-09T02:26:54.814Z,36.78
2023-05-09T02:27:54.807Z,36.75
2023-05-09T02:28:54.815Z,36.80
2023-05-09T02:29:54.855Z,36.83
2023-05-09T02:30:54.857Z,36.78
2023-05-09T02:31:54.897Z,36.80
2023-05-09T02:32:54.885Z,36.85
2023-05-09T02:33:54.846Z,36.78
2023-05-09T02:34:54.813Z,36.80
2023-05-09T02:35:54.794Z,36.85
2023-05-09T02:36:54.793Z,36.79
2023-05-09T02:37:54.845Z,36.82
2023-05-09T02:38:54.737Z,36.80
2023-05-09T02:39:54.742Z,36.79
2023-05-09T02:40:54.716Z,36.82
2023-05-09T02:41:54.700Z,36.82
2023-05-09T02:42:54.699Z,36.82
2023-05-09T02:43:54.666Z,36.81
2023-05-09T02:44:54.643Z,36.78
2023-05-09T02:45:54.657Z,36.80
2023-05-09T02:46:54.622Z,36.80
2023-05-09T02:47:54.640Z,36.78
2023-05-09T02:48:54.594Z,36.80
2023-05-09T02:49:54.578Z,36.77
2023-05-09T02:50:54.577Z,36.81
2023-05-09T02:51:54.557Z,36.82
2023-05-09T02:52:54.548Z,36.78
2023-05-09T02:53:54.603Z,36.79
2023-05-09T02:54:54.507Z,36.75
2023-05-09T02:55:54.493Z,36.77
2023-05-09T02:56:54.488Z,36.77
2023-05-09T02:58:05.359Z,36.77
2023-05-09T02:58:54.437Z,36.79
2023-05-09T02:59:54.435Z,36.78
2023-05-09T03:00:54.425Z,36.80
2023-05-09T03:01:54.491Z,36.76
2023-05-09T03:02:54.453Z,36.77
2023-05-09T03:03:54.462Z,36.77
2023-05-09T03:04:54.331Z,36.78
2023-05-09T03:05:54.315Z,36.76
2023-05-09T03:06:54.319Z,36.80
2023-05-09T03:07:54.283Z,36.80
2023-05-09T03:08:54.300Z,36.79
2023-05-09T03:09:54.353Z,36.80
2023-05-09T03:10:54.304Z,36.80
2023-05-09T03:11:54.320Z,36.80
2023-05-09T03:12:54.351Z,36.76
2023-05-09T03:13:54.371Z,36.79
2023-05-09T03:14:54.366Z,36.78
2023-05-09T03:15:54.397Z,36.79
2023-05-09T03:16:54.380Z,36.76
2023-05-09T03:17:54.437Z,36.76
2023-05-09T03:18:54.409Z,36.76
2023-05-09T03:19:54.453Z,36.78
2023-05-09T03:20:54.438Z,36.76
2023-05-09T03:21:54.448Z,36.79
2023-05-09T03:22:54.468Z,36.80
2023-05-09T03:23:54.479Z,36.77
2023-05-09T03:24:54.517Z,36.79
2023-05-09T03:25:54.612Z,36.77
2023-05-09T03:26:54.541Z,36.78
2023-05-09T03:27:54.566Z,36.80
2023-05-09T03:28:54.578Z,36.78
2023-05-09T03:29:54.589Z,36.75
2023-05-09T03:30:54.622Z,36.74
2023-05-09T03:31:54.657Z,36.75
2023-05-09T03:32:54.699Z,36.75
2023-05-09T03:33:54.666Z,36.79
2023-05-09T03:34:54.703Z,36.76
2023-05-09T03:35:54.691Z,36.75
2023-05-09T03:36:54.714Z,36.76
2023-05-09T03:37:54.743Z,36.72
2023-05-09T03:38:54.777Z,36.78
2023-05-09T03:39:54.795Z,36.77
2023-05-09T03:40:54.813Z,36.73
2023-05-09T03:41:54.918Z,36.75
2023-05-09T03:42:54.843Z,36.73
2023-05-09T03:43:54.856Z,36.78
2023-05-09T03:44:54.904Z,36.75
2023-05-09T03:45:54.905Z,36.75
2023-05-09T03:46:55.032Z,36.76
2023-05-09T03:47:54.977Z,36.77
2023-05-09T03:48:54.961Z,36.72
2023-05-09T03:49:54.981Z,36.70
2023-05-09T03:50:54.981Z,36.72
2023-05-09T03:51:54.979Z,36.74
2023-05-09T03:52:54.952Z,36.78
2023-05-09T03:53:54.935Z,36.76
2023-05-09T03:54:54.922Z,36.73
2023-05-09T03:55:54.892Z,36.72
2023-05-09T03:56:54.874Z,36.71
2023-05-09T03:57:54.944Z,36.71
2023-05-09T03:58:54.848Z,36.73
2023-05-09T03:59:54.814Z,36.73
2023-05-09T04:00:54.794Z,36.72
2023-05-09T04:01:54.793Z,36.71
2023-05-09T04:02:54.811Z,36.73
2023-05-09T04:03:54.821Z,36.73
2023-05-09T04:04:54.738Z,36.69
2023-05-09T04:05:54.671Z,36.70
2023-05-09T04:06:54.653Z,36.68
2023-05-09T04:07:54.633Z,36.66
2023-05-09T04:08:54.620Z,36.71
2023-05-09T04:09:54.592Z,36.69
2023-05-09T04:10:54.588Z,36.68
2023-05-09T04:11:54.565Z,36.64
2023-05-09T04:12:54.575Z,36.67
2023-05-09T04:13:54.618Z,36.69
2023-05-09T04:14:54.503Z,36.66
2023-05-09T04:15:54.493Z,36.74
2023-05-09T04:16:54.489Z,36.69
2023-05-09T04:17:54.594Z,36.68
2023-05-09T04:18:54.440Z,36.70
2023-05-09T04:19:54.459Z,36.67
2023-05-09T04:20:54.475Z,36.64
2023-05-09T04:21:54.500Z,36.67
2023-05-09T04:22:54.518Z,36.71
2023-05-09T04:23:54.513Z,36.66
2023-05-09T04:24:54.537Z,36.69
2023-05-09T04:25:54.549Z,36.68
2023-05-09T04:26:54.575Z,36.65
2023-05-09T04:27:54.569Z,36.68
2023-05-09T04:28:54.579Z,36.64
2023-05-09T04:29:54.700Z,36.67
2023-05-09T04:30:54.771Z,36.68
2023-05-09T04:31:54.783Z,36.71
2023-05-09T04:32:54.675Z,36.62
2023-05-09T04:33:54.696Z,36.68
2023-05-09T04:34:54.694Z,36.68
2023-05-09T04:35:54.720Z,36.72
2023-05-09T04:36:54.741Z,36.69
2023-05-09T04:37:54.759Z,36.65
2023-05-09T04:38:54.793Z,36.63
2023-05-09T04:39:54.837Z,36.66
2023-05-09T04:40:54.868Z,36.70
2023-05-09T04:41:54.893Z,36.71
2023-05-09T04:42:54.909Z,36.66
2023-05-09T04:43:54.939Z,36.68
2023-05-09T04:44:54.943Z,36.67
2023-05-09T04:45:55.105Z,36.65
2023-05-09T04:46:54.998Z,36.72
2023-05-09T04:47:55.069Z,36.66
2023-05-09T04:48:55.016Z,36.68
2023-05-09T04:49:55.044Z,36.69
2023-05-09T04:50:55.074Z,36.67
2023-05-09T04:51:55.066Z,36.66
2023-05-09T04:52:55.095Z,36.67
2023-05-09T04:53:55.114Z,36.64
2023-05-09T04:54:55.134Z,36.67
2023-05-09T04:55:55.160Z,36.66
2023-05-09T04:57:55.176Z,36.72
2023-05-09T04:58:55.216Z,36.69
2023-05-09T04:59:55.214Z,36.65
2023-05-09T05:00:55.226Z,36.64
2023-05-09T05:01:55.367Z,36.68
2023-05-09T05:02:55.313Z,36.70
2023-05-09T05:03:55.278Z,36.72
2023-05-09T05:05:02.913Z,36.65
2023-05-09T05:05:56.298Z,36.65
2023-05-09T05:06:55.259Z,36.67
2023-05-09T05:07:55.272Z,36.66
2023-05-09T05:08:55.221Z,36.68
2023-05-09T05:09:55.222Z,36.70
2023-05-09T05:10:55.180Z,36.73
2023-05-09T05:12:00.741Z,36.67
2023-05-09T05:12:56.226Z,36.65
2023-05-09T05:13:55.127Z,36.68
2023-05-09T05:14:55.112Z,36.73
2023-05-09T05:15:55.114Z,36.75
2023-05-09T05:16:55.072Z,36.68
2023-05-09T05:17:55.202Z,36.66
2023-05-09T05:18:55.034Z,36.61
2023-05-09T05:19:55.024Z,36.65
2023-05-09T05:20:55.049Z,36.68
2023-05-09T05:21:54.992Z,36.68
2023-05-09T05:22:55.008Z,36.69
2023-05-09T05:23:54.952Z,36.68
2023-05-09T05:24:54.970Z,36.71
2023-05-09T05:25:54.945Z,36.66
2023-05-09T05:26:54.927Z,36.66
2023-05-09T05:27:54.910Z,36.67
2023-05-09T05:28:54.881Z,36.67
2023-05-09T05:29:54.885Z,36.71
2023-05-09T05:30:54.869Z,36.66
2023-05-09T05:31:54.875Z,36.66
2023-05-09T05:32:54.861Z,36.68
2023-05-09T05:33:54.892Z,36.67
2023-05-09T05:34:54.798Z,36.90
2023-05-09T05:35:54.765Z,37.57
2023-05-09T05:36:54.788Z,37.83
2023-05-09T05:37:54.732Z,38.31
2023-05-09T05:38:54.716Z,38.70
2023-05-09T05:39:54.698Z,39.06
2023-05-09T05:40:54.693Z,39.25
2023-05-09T05:41:54.659Z,39.21
2023-05-09T05:42:54.630Z,39.34
2023-05-09T05:43:54.688Z,39.46
2023-05-09T05:44:54.593Z,39.39
2023-05-09T05:45:54.597Z,39.46
2023-05-09T05:46:54.533Z,39.45
2023-05-09T05:47:54.519Z,39.35
2023-05-09T05:48:54.471Z,39.47
2023-05-09T05:49:54.545Z,39.46
2023-05-09T05:50:54.454Z,39.41
2023-05-09T05:51:54.411Z,38.84
2023-05-09T05:52:54.377Z,38.87
2023-05-09T05:53:54.352Z,38.77
2023-05-09T05:54:54.337Z,39.27
2023-05-09T05:55:54.308Z,39.06
2023-05-09T05:56:54.288Z,39.23
2023-05-09T05:57:54.282Z,39.05
2023-05-09T05:58:54.257Z,38.98
2023-05-09T05:59:54.226Z,39.08
2023-05-09T06:00:54.249Z,39.29
2023-05-09T06:01:54.239Z,39.33
2023-05-09T06:02:54.320Z,39.35
2023-05-09T06:03:54.273Z,39.35
2023-05-09T06:04:55.918Z,39.22
2023-05-09T06:05:54.278Z,39.23
2023-05-09T06:06:54.095Z,39.19
2023-05-09T06:07:54.075Z,39.55
2023-05-09T06:08:54.043Z,39.42
2023-05-09T06:09:54.043Z,39.25
2023-05-09T06:10:54.001Z,39.03
2023-05-09T06:11:54.030Z,39.56
2023-05-09T06:12:53.990Z,39.57
2023-05-09T06:13:53.950Z,39.45
2023-05-09T06:14:53.915Z,39.35
2023-05-09T06:15:54.258Z,39.29
2023-05-09T06:16:53.952Z,39.58
2023-05-09T06:17:53.886Z,39.55
2023-05-09T06:18:55.946Z,39.59
2023-05-09T06:19:53.813Z,39.38
2023-05-09T06:20:53.811Z,39.30
2023-05-09T06:21:53.869Z,39.22
2023-05-09T06:22:53.829Z,39.53
2023-05-09T06:24:53.741Z,39.35
2023-05-09T06:25:53.711Z,39.21
2023-05-09T06:26:53.685Z,39.17
2023-05-09T06:27:54.191Z,39.54
2023-05-09T06:28:53.655Z,39.45
2023-05-09T06:29:53.639Z,39.48
2023-05-09T06:30:53.597Z,39.43
2023-05-09T06:31:53.728Z,39.74
2023-05-09T06:32:53.646Z,39.72
2023-05-09T06:33:53.539Z,39.80
2023-05-09T06:34:53.543Z,39.94
2023-05-09T06:35:53.568Z,39.59
2023-05-09T06:36:53.480Z,39.58
2023-05-09T06:37:53.580Z,39.64
2023-05-09T06:38:53.451Z,39.71
2023-05-09T06:39:53.434Z,39.89
2023-05-09T06:40:53.410Z,40.00
2023-05-09T06:41:53.379Z,40.15
2023-05-09T06:42:53.356Z,40.32
2023-05-09T06:43:53.352Z,40.37
2023-05-09T06:44:53.329Z,39.94
2023-05-09T06:45:53.304Z,39.97
2023-05-09T06:46:53.285Z,39.82
2023-05-09T06:47:53.267Z,39.49
2023-05-09T06:48:53.222Z,39.61
2023-05-09T06:49:53.213Z,39.68
2023-05-09T06:50:53.198Z,39.48
2023-05-09T06:51:53.154Z,39.26
2023-05-09T06:52:53.188Z,38.95
2023-05-09T06:53:53.196Z,38.72
2023-05-09T06:54:53.061Z,38.77
2023-05-09T06:55:53.066Z,38.68
2023-05-09T06:56:53.016Z,38.65
2023-05-09T06:57:52.988Z,38.74
2023-05-09T06:58:53.010Z,38.97
2023-05-09T06:59:52.935Z,39.30
2023-05-09T07:00:52.916Z,39.10
2023-05-09T07:01:52.921Z,38.85
2023-05-09T07:02:52.940Z,38.56
2023-05-09T07:03:52.838Z,39.29
2023-05-09T07:04:52.845Z,39.31
2023-05-09T07:05:52.780Z,39.47
2023-05-09T07:06:52.787Z,39.52
2023-05-09T07:07:52.749Z,39.49
2023-05-09T07:08:52.715Z,39.42
2023-05-09T07:09:55.273Z,39.50
2023-05-09T07:10:53.676Z,39.61
2023-05-09T07:11:52.647Z,39.37
2023-05-09T07:12:52.697Z,39.17
2023-05-09T07:13:52.594Z,39.23
2023-05-09T07:14:52.546Z,39.47
2023-05-09T07:15:52.528Z,39.12
2023-05-09T07:16:52.611Z,38.97
2023-05-09T07:17:52.509Z,38.86
2023-05-09T07:18:52.452Z,38.83
2023-05-09T07:19:52.446Z,38.73
2023-05-09T07:20:52.391Z,38.57
2023-05-09T07:21:52.380Z,38.79
2023-05-09T07:22:52.388Z,38.90
2023-05-09T07:23:52.387Z,38.87
2023-05-09T07:24:52.310Z,38.69
2023-05-09T07:25:52.377Z,38.49
2023-05-09T07:26:52.209Z,38.70
2023-05-09T07:27:52.260Z,38.72
2023-05-09T07:28:52.159Z,38.59
2023-05-09T07:29:52.130Z,38.66
2023-05-09T07:30:52.094Z,38.73
2023-05-09T07:31:52.127Z,38.81
2023-05-09T07:32:52.222Z,38.60
2023-05-09T07:33:52.018Z,38.63
2023-05-09T07:34:52.168Z,38.51
2023-05-09T07:35:51.926Z,38.49
2023-05-09T07:36:51.938Z,38.56
2023-05-09T07:37:51.862Z,38.64
2023-05-09T07:38:51.928Z,38.65
2023-05-09T07:39:51.787Z,38.69
2023-05-09T07:40:51.749Z,38.58
2023-05-09T07:41:51.729Z,38.65
2023-05-09T07:42:51.671Z,38.50
2023-05-09T07:43:51.636Z,38.44
2023-05-09T07:44:51.629Z,38.51
2023-05-09T07:45:51.598Z,38.43
2023-05-09T07:46:51.529Z,38.45
2023-05-09T07:47:51.544Z,38.50
2023-05-09T07:48:51.486Z,38.52
2023-05-09T07:49:51.534Z,38.41
2023-05-09T07:50:51.557Z,38.24
2023-05-09T07:51:51.514Z,38.47
2023-05-09T07:52:51.477Z,38.79
2023-05-09T07:53:51.495Z,38.69
2023-05-09T07:54:51.421Z,38.49
2023-05-09T07:55:51.419Z,38.36
2023-05-09T07:56:51.360Z,38.42
2023-05-09T07:57:51.399Z,38.57
2023-05-09T07:58:52.146Z,38.45
2023-05-09T07:59:51.276Z,38.36
2023-05-09T08:00:51.269Z,38.29
2023-05-09T08:01:51.401Z,38.08
2023-05-09T08:02:51.370Z,38.17
2023-05-09T08:03:51.366Z,38.06
2023-05-09T08:04:51.338Z,38.07
2023-05-09T08:05:51.372Z,38.03
2023-05-09T08:06:51.375Z,37.89
2023-05-09T08:07:51.321Z,38.26
2023-05-09T08:08:51.287Z,38.24
2023-05-09T08:09:51.266Z,38.06
2023-05-09T08:10:51.238Z,38.02
2023-05-09T08:11:51.182Z,37.97
2023-05-09T08:12:51.173Z,38.00
2023-05-09T08:13:51.224Z,37.78
2023-05-09T08:14:51.089Z,38.01
2023-05-09T08:15:51.138Z,37.87
2023-05-09T08:16:51.017Z,38.10
2023-05-09T08:17:51.025Z,38.13
2023-05-09T08:18:50.983Z,38.02
2023-05-09T08:19:50.953Z,37.93
2023-05-09T08:20:50.909Z,38.05
2023-05-09T08:21:50.870Z,38.05
2023-05-09T08:22:50.842Z,37.97
2023-05-09T08:23:50.821Z,37.99
2023-05-09T08:24:50.793Z,38.05
2023-05-09T08:25:50.746Z,38.12
2023-05-09T08:26:50.734Z,38.18
2023-05-09T08:27:53.003Z,38.17
2023-05-09T08:28:50.677Z,38.10
2023-05-09T08:29:50.781Z,38.00
2023-05-09T08:30:50.697Z,38.02
2023-05-09T08:31:50.709Z,38.15
2023-05-09T08:32:50.731Z,37.33
2023-05-09T08:33:50.749Z,36.86
2023-05-09T08:34:50.772Z,36.83
2023-05-09T08:35:50.746Z,36.81
2023-05-09T08:36:50.732Z,36.88
2023-05-09T08:37:50.702Z,36.80
2023-05-09T08:38:50.830Z,36.13
2023-05-09T08:39:50.690Z,36.03
2023-05-09T08:40:50.651Z,36.38
2023-05-09T08:41:50.624Z,35.93
2023-05-09T08:42:50.643Z,36.19
2023-05-09T08:43:50.711Z,36.16
2023-05-09T08:44:50.595Z,36.17
2023-05-09T08:45:50.666Z,36.27
2023-05-09T08:46:50.521Z,37.14
2023-05-09T08:47:50.523Z,37.16
2023-05-09T08:48:50.465Z,37.48
2023-05-09T08:49:50.485Z,37.62
2023-05-09T08:50:50.403Z,37.65
2023-05-09T08:51:50.381Z,37.32
2023-05-09T08:52:50.360Z,36.38
2023-05-09T08:53:50.334Z,35.86
2023-05-09T08:54:50.303Z,35.66
2023-05-09T08:55:50.350Z,35.21
2023-05-09T08:56:50.381Z,35.68
2023-05-09T08:57:50.350Z,35.71
2023-05-09T08:58:50.446Z,35.48
2023-05-09T08:59:50.269Z,35.77
2023-05-09T09:00:50.344Z,36.03
2023-05-09T09:01:50.376Z,36.33
2023-05-09T09:02:50.228Z,36.82
2023-05-09T09:03:50.172Z,36.82
2023-05-09T09:04:50.204Z,36.83
2023-05-09T09:05:50.120Z,37.05
2023-05-09T09:06:50.088Z,37.29
2023-05-09T09:07:50.048Z,37.44
2023-05-09T09:08:50.053Z,37.56
2023-05-09T09:09:50.062Z,37.62
2023-05-09T09:10:49.976Z,37.75
2023-05-09T09:11:49.950Z,37.77
2023-05-09T09:12:50.223Z,37.70
2023-05-09T09:13:49.889Z,37.64
2023-05-09T09:14:49.828Z,37.78
2023-05-09T09:15:49.821Z,37.85
2023-05-09T09:16:49.825Z,37.82
2023-05-09T09:17:49.895Z,37.93
2023-05-09T09:18:49.695Z,38.03
2023-05-09T09:19:49.799Z,38.02
2023-05-09T09:20:49.608Z,38.07
2023-05-09T09:21:49.599Z,38.13
2023-05-09T09:22:49.561Z,37.99
2023-05-09T09:23:49.523Z,38.11
2023-05-09T09:24:50.543Z,38.04
2023-05-09T09:25:49.558Z,38.28
2023-05-09T09:26:49.408Z,38.35
2023-05-09T09:27:49.351Z,38.20
2023-05-09T09:28:49.323Z,38.38
2023-05-09T09:29:49.334Z,38.32
2023-05-09T09:30:49.262Z,38.43
2023-05-09T09:31:49.240Z,38.44
2023-05-09T09:32:49.267Z,38.54
2023-05-09T09:33:49.364Z,37.23
2023-05-09T09:34:49.396Z,36.17
2023-05-09T09:35:49.292Z,35.92
2023-05-09T09:36:49.329Z,35.22
2023-05-09T09:37:49.364Z,35.31
2023-05-09T09:38:49.373Z,35.32
2023-05-09T09:39:49.397Z,35.11
2023-05-09T09:40:49.540Z,35.27
2023-05-09T09:41:49.475Z,35.87
2023-05-09T09:42:49.426Z,36.40
2023-05-09T09:43:49.445Z,36.87
2023-05-09T09:44:49.484Z,36.84
2023-05-09T09:45:49.532Z,36.95
2023-05-09T09:46:49.553Z,37.06
2023-05-09T09:47:49.542Z,36.89
2023-05-09T09:48:49.485Z,36.79
2023-05-09T09:49:49.559Z,35.99
2023-05-09T09:50:49.475Z,36.48
2023-05-09T09:51:49.415Z,36.24
2023-05-09T09:52:49.420Z,36.38
2023-05-09T09:53:49.352Z,36.35
2023-05-09T09:54:49.322Z,36.41
2023-05-09T09:55:49.516Z,36.54
2023-05-09T09:56:49.295Z,36.56
2023-05-09T09:57:49.225Z,36.57
2023-05-09T09:58:49.273Z,36.68
2023-05-09T09:59:49.289Z,36.82
2023-05-09T10:00:49.335Z,36.96
2023-05-09T10:01:49.351Z,36.95
2023-05-09T10:02:49.477Z,36.85
2023-05-09T10:03:49.398Z,36.97
2023-05-09T10:04:49.408Z,36.76
2023-05-09T10:05:49.539Z,36.88
2023-05-09T10:06:49.420Z,36.89
2023-05-09T10:07:49.441Z,36.88
2023-05-09T10:08:49.450Z,36.95
2023-05-09T10:09:49.454Z,36.96
2023-05-09T10:10:49.436Z,37.00
2023-05-09T10:11:49.419Z,37.00
2023-05-09T10:12:49.458Z,37.12
2023-05-09T10:13:49.451Z,37.11
2023-05-09T10:14:49.425Z,37.14
2023-05-09T10:15:53.447Z,37.24
2023-05-09T10:16:49.435Z,37.38
2023-05-09T10:17:49.462Z,37.26
2023-05-09T10:18:49.467Z,37.25
2023-05-09T10:19:49.324Z,37.24
2023-05-09T10:20:49.261Z,37.12
2023-05-09T10:21:49.319Z,37.11
2023-05-09T10:22:49.197Z,37.20
2023-05-09T10:23:49.177Z,37.11
2023-05-09T10:24:49.114Z,35.58
2023-05-09T10:25:49.063Z,34.97
2023-05-09T10:26:49.031Z,34.95
2023-05-09T10:27:49.012Z,35.33
2023-05-09T10:28:48.972Z,35.18
2023-05-09T10:29:48.931Z,35.22
2023-05-09T10:30:48.923Z,36.05
2023-05-09T10:31:48.877Z,36.09
2023-05-09T10:32:48.836Z,36.24
2023-05-09T10:33:48.810Z,36.17
2023-05-09T10:34:48.748Z,36.06
2023-05-09T10:35:48.703Z,36.35
2023-05-09T10:36:48.670Z,36.44
2023-05-09T10:37:48.633Z,36.57
2023-05-09T10:38:48.591Z,36.74
2023-05-09T10:39:48.566Z,36.65
2023-05-09T10:40:48.517Z,36.69
2023-05-09T10:41:48.481Z,36.54
2023-05-09T10:42:48.441Z,37.59
2023-05-09T10:43:48.436Z,36.59
2023-05-09T10:44:48.378Z,36.68
2023-05-09T10:45:48.346Z,36.31
2023-05-09T10:46:48.334Z,36.45
2023-05-09T10:47:48.321Z,36.25
2023-05-09T10:48:48.360Z,37.06
2023-05-09T10:49:48.350Z,36.70
2023-05-09T10:50:48.350Z,36.58
2023-05-09T10:51:48.357Z,36.83
2023-05-09T10:52:48.366Z,36.64
2023-05-09T10:53:48.501Z,36.49
2023-05-09T10:54:48.390Z,36.37
2023-05-09T10:55:48.398Z,36.40
2023-05-09T10:56:48.403Z,37.06
2023-05-09T10:57:48.430Z,40.04
2023-05-09T10:58:48.434Z,39.45
2023-05-09T10:59:48.467Z,38.69
2023-05-09T11:00:48.465Z,38.69
2023-05-09T11:01:48.511Z,38.07
2023-05-09T11:02:48.626Z,38.01
2023-05-09T11:03:48.625Z,37.97
2023-05-09T11:04:48.778Z,38.01
2023-05-09T11:05:48.614Z,38.13
2023-05-09T11:06:48.631Z,38.23
2023-05-09T11:07:48.704Z,38.56
2023-05-09T11:08:48.690Z,38.39
2023-05-09T11:09:48.695Z,38.24
2023-05-09T11:10:48.703Z,38.06
2023-05-09T11:11:48.762Z,37.80
2023-05-09T11:12:48.761Z,37.35
2023-05-09T11:13:48.790Z,37.27
2023-05-09T11:14:48.819Z,37.09
2023-05-09T11:15:48.782Z,37.09
2023-05-09T11:16:48.724Z,36.97
2023-05-09T11:17:48.712Z,36.83
2023-05-09T11:18:48.606Z,36.73
2023-05-09T11:19:48.583Z,36.70
2023-05-09T11:20:48.550Z,36.73
2023-05-09T11:21:48.492Z,36.61
2023-05-09T11:22:48.469Z,36.58
2023-05-09T11:23:48.400Z,36.59
2023-05-09T11:24:48.428Z,36.54
2023-05-09T11:25:48.404Z,36.51
2023-05-09T11:26:48.316Z,36.43
2023-05-09T11:27:48.296Z,36.35
2023-05-09T11:28:48.315Z,36.30
2023-05-09T11:29:48.822Z,36.16
2023-05-09T11:30:48.349Z,36.10
2023-05-09T11:31:48.379Z,36.08
2023-05-09T11:32:48.444Z,36.02
2023-05-09T11:33:48.401Z,35.94
2023-05-09T11:34:48.411Z,35.92
2023-05-09T11:35:48.437Z,35.83
2023-05-09T11:36:48.409Z,35.76
2023-05-09T11:37:48.530Z,35.71
2023-05-09T11:38:48.480Z,35.62
2023-05-09T11:39:48.532Z,35.53
2023-05-09T11:40:48.473Z,35.61
2023-05-09T11:41:48.583Z,35.53
2023-05-09T11:42:48.519Z,35.53
2023-05-09T11:43:48.537Z,35.47
2023-05-09T11:44:48.546Z,35.45
2023-05-09T11:45:48.601Z,35.42
2023-05-09T11:46:48.596Z,35.34
2023-05-09T11:47:48.699Z,35.36
2023-05-09T11:48:48.617Z,35.30
2023-05-09T11:49:48.616Z,35.29
2023-05-09T11:50:48.640Z,35.25
2023-05-09T11:51:48.649Z,35.24
2023-05-09T11:52:48.649Z,35.17
2023-05-09T11:53:48.652Z,35.14
2023-05-09T11:54:48.692Z,35.13
2023-05-09T11:55:48.692Z,35.08
2023-05-09T11:56:48.707Z,35.10
2023-05-09T11:57:48.737Z,35.07
2023-05-09T11:58:48.694Z,35.01
2023-05-09T11:59:48.725Z,34.96
2023-05-09T12:00:48.734Z,34.92
2023-05-09T12:01:48.767Z,34.87
2023-05-09T12:02:48.827Z,34.84
2023-05-09T12:03:48.835Z,34.85
2023-05-09T12:04:48.802Z,34.89
2023-05-09T12:05:48.802Z,34.82
2023-05-09T12:06:48.840Z,34.83
2023-05-09T12:07:48.889Z,34.85
2023-05-09T12:08:48.883Z,34.83
2023-05-09T12:09:48.916Z,34.82
2023-05-09T12:10:48.892Z,34.72
2023-05-09T12:11:49.988Z,34.72
2023-05-09T12:12:49.115Z,34.71
2023-05-09T12:13:49.114Z,34.65
2023-05-09T12:14:49.025Z,34.64
2023-05-09T12:15:49.063Z,34.66
2023-05-09T12:16:48.998Z,34.59
2023-05-09T12:17:51.332Z,34.54
2023-05-09T12:18:48.963Z,34.51
2023-05-09T12:19:48.927Z,34.48
2023-05-09T12:20:48.898Z,34.46
2023-05-09T12:21:48.872Z,34.46
2023-05-09T12:22:48.832Z,34.41
2023-05-09T12:23:51.226Z,34.38
2023-05-09T12:24:48.771Z,34.37
2023-05-09T12:25:48.711Z,34.34
2023-05-09T12:26:48.668Z,34.31
2023-05-09T12:27:48.638Z,34.27
2023-05-09T12:28:48.608Z,34.28
2023-05-09T12:29:48.652Z,34.27
2023-05-09T12:30:48.519Z,34.25
2023-05-09T12:31:48.554Z,34.21
2023-05-09T12:32:48.439Z,34.19
2023-05-09T12:33:48.394Z,34.14
2023-05-09T12:34:48.368Z,34.09
2023-05-09T12:35:48.315Z,34.06
2023-05-09T12:36:48.264Z,34.04
2023-05-09T12:37:48.214Z,34.04
2023-05-09T12:38:48.202Z,33.99
2023-05-09T12:39:48.203Z,34.02
2023-05-09T12:40:48.218Z,34.02
2023-05-09T12:41:57.856Z,34.00
2023-05-09T12:42:49.207Z,33.92
2023-05-09T12:43:48.153Z,33.92
2023-05-09T12:44:48.106Z,33.86
2023-05-09T12:45:48.083Z,33.83
2023-05-09T12:46:48.054Z,33.79
2023-05-09T12:47:48.045Z,33.75
2023-05-09T12:48:47.958Z,33.75
2023-05-09T12:49:47.956Z,33.77
2023-05-09T12:50:47.891Z,33.78
2023-05-09T12:51:47.872Z,33.76
2023-05-09T12:53:01.989Z,33.71
2023-05-09T12:53:48.789Z,33.69
2023-05-09T12:54:47.735Z,33.54